TAMU Turf Lab's Hourly Summary for Friday, May 11, 2018
Hour Temp
(f)
RH
(%)
Solar Rad.
(MJ/m2)
Rainfall
(in)
Wind
(mph)
5/11/2018 12:00 AM 72 64 0 0 8.32
5/11/2018 1:00 AM 71 71 0 0 8.19
5/11/2018 2:00 AM 69 79 0 0 6.71
5/11/2018 3:00 AM 69 84 0 0 5.5
5/11/2018 4:00 AM 69 88 0 0 6.29
5/11/2018 5:00 AM 69 90 0 0 7.2
5/11/2018 6:00 AM 70 91 0 0 7.86
5/11/2018 7:00 AM 70 90 0 0 7.24
5/11/2018 8:00 AM 70 87 0.11 0 8.69
5/11/2018 9:00 AM 71 84 0.35 0 9.61
5/11/2018 10:00 AM 73 72 1.45 0 10.76
5/11/2018 11:00 AM 76 61 2.33 0 11.12
5/11/2018 12:00 PM 79 56 2 0 10.77
5/11/2018 1:00 PM 81 47 2.93 0 11.71
5/11/2018 2:00 PM 84 43 3.02 0 11.68
5/11/2018 3:00 PM 84 40 2.78 0 11.4
5/11/2018 4:00 PM 84 41 1.83 0 10.44
5/11/2018 5:00 PM 85 41 2 0 11.1
5/11/2018 6:00 PM 85 40 1.86 0 11.68
5/11/2018 7:00 PM 84 42 0.96 0 10.19
5/11/2018 8:00 PM 82 44 0.39 0 9.02
5/11/2018 9:00 PM 79 50 0.01 0 7.37
5/11/2018 10:00 PM 77 56 0 0 7.42
5/11/2018 11:00 PM 75 64 0 0 7.45
Data Summary 76 63 22.02 0.00 9.07